Agate Beach, Washington
Current Conditions -  °F | °C
As of 7:53 PM on Sunday 21 Dec 2014 (Local Time) from KCLM Reporting Station
Few Clouds Few Clouds  
Wind Chill: 50°   Ceiling: Unl
Heat Index: 50°   Visibility: 10mi
Dew Point: 40°   Wind: 13mph
Humidity: 68%   Direction: 260°W
Pressure: 30.05"   Gusts: NA
Location:  48.1359°N, 123.734°W
Report Text: KCLM 220353Z AUTO 26011KT 10SM FEW120 10/04 A3005 RMK AO2 SLP178 T01000044 TSNO $
Loading
Personal Weather Stations






























Interactive Weather Map New forecast layout! Learn more

10-Day Weather Forecast

Advertisements
Track Severe Weather on mobile